VATSIM Germany Forum

Zurück   VATSIM Germany Forum > Community > Events

Events Ankündigungen von Events, Checkouts, TV-Terminen, usw.

Antwort
 
LinkBack Themen-Optionen Ansicht
Alt 2018-02-07, 17:33   #441 (permalink)
 
Benutzerbild von Jan Doehring
 
Registriert seit: 2016-09-23
Ort: EDSA & ETSA
Beiträge: 320
Danke erteilt: 560
256 Danksagungen in 132 Beiträgen erhalten
Standard

Zitat:
Zitat von Michael Hoffman Beitrag anzeigen
VFR Verkehr stellt einfach auf CAVOK um und darf sich in der Platzrunde schwindelig fliegen. Gerne auch mal zwischen den Pisten
Oder fragt bei München Radar nach einem IFR-Pickup !
Ne, Spaß beiseite... Da heute der letzte MüMi vor meinem CPT auf Approach sein wird, sind "Specials" gerne gesehen, aber natürlich kein Muß! Guten Flug von und nach München!
__________________

Meine Spottingbilder auf Instagram

Geändert von Jan Doehring (2018-02-07 um 17:50 Uhr)
Jan Doehring ist offline   Mit Zitat antworten
Alt 2018-02-14, 17:58   #442 (permalink)
 
Registriert seit: 2017-07-28
Ort: EDDM
Beiträge: 58
Danke erteilt: 211
111 Danksagungen in 39 Beiträgen erhalten
Standard

Meine Damen und Herren, treten Sie ein, es ist wieder München Mittwoch!

Heute präsentieren wir Ihnen: "Approach CPT - Jan Doehring"
Viel Glück Jan!

Von 1830z - 2130z steht wieder einmal eine Traumbesetzung für Euch im virtuellen Tower und Center bereit.

Das Wetter:
EDDM 141520Z 11005KT 9999 FEW025 01/M05 Q1018 R88/190095 NOSIG

Das Wetter im Laufe des Abends:
EDDM 141100Z 1412/1518 09004KT CAVOK
TEMPO 1516/1518 2000 -SN BKN014 PROB30
TEMPO 1516/1518 -FZRA

Wir hören uns später!
__________________
Michael Hoffman ist offline   Mit Zitat antworten
Alt 2018-02-28, 20:03   #443 (permalink)
 
Registriert seit: 2009-09-10
Ort: EDDM
Alter: 43
Beiträge: 1.981
Danke erteilt: 4.287
1.786 Danksagungen in 905 Beiträgen erhalten
Standard

In 30 Minuten sind wir wieder für euch da.
Gerade trotz der eisigen Außentemperaturen sind wir für euch vom Boden bis in die Dünnluft für euch da.

Hier noch das aktuelle Metar
Zitat:
EDDM 281750Z 08010KT CAVOK M08/M16 Q1015 NOSIG
Somit ist also ideales IFR und VFR Wetter.

Wir freuen uns auf euren Besuch.
__________________
Christian Speth ist offline   Mit Zitat antworten
Alt 2018-03-07, 14:20   #444 (permalink)
 
Registriert seit: 2009-09-10
Ort: EDDM
Alter: 43
Beiträge: 1.981
Danke erteilt: 4.287
1.786 Danksagungen in 905 Beiträgen erhalten
Standard

Wie jeden Mittwoch, bieten wir euch auch heute den Rundumservice. Vom Boden bis zur Dünnluft sind wir besetzt und freuen uns auf euren Besuch.

Meteorologisch sieht das Ganze heute so aus:
Zitat:
EDDM 071100Z 0712/0818 26015KT 9999 BKN020 TEMPO 0712/0716 25015G25KT BECMG 0716/0719 24010KT BECMG 0814/0817 18005KT
Kommt zahlreich vorbei und habt mit uns gemeinsam Spaß.
__________________
Christian Speth ist offline   Mit Zitat antworten
Danksagungen
Alt 2018-03-28, 16:51   #445 (permalink)
 
Registriert seit: 2009-09-10
Ort: EDDM
Alter: 43
Beiträge: 1.981
Danke erteilt: 4.287
1.786 Danksagungen in 905 Beiträgen erhalten
Standard

Wieder einmal ist es Mittwoch. Heute der erste nach der Zeitumstellung. Wir sind wie immer für euch von 19:30 Uhr bis 22:30 Uhr local da. Wer es lieber als UTC hat : 17.30-20.30z

Wir sind vom Boden bis zur Dünnluft besetzt und freuen uns über jeden Flieger, egal IFR oder VFR.

Als Rennstrecke bietet sich heute wie immer Wien an, aber wer lieber in good old Germany bleiben möchte nutzt die Möglichkeit von oder nach Münster zu fliegen.

Hier noch das TAF für EDDM
Zitat:
EDDM 281100Z 2812/2918 25015G25KT 9999 SCT015 BKN035 BECMG 2814/2816 23010KT TEMPO 2817/2904 RA BECMG 2822/2824 28020G30KT BECMG 2901/2903 27010KT
__________________
Christian Speth ist offline   Mit Zitat antworten
Danksagungen
Alt 2018-03-28, 18:08   #446 (permalink)
 
Benutzerbild von Michael Steffen
 
Registriert seit: 2013-08-11
Ort: 30 km South EDDH
Beiträge: 2.624
Danke erteilt: 1.696
1.781 Danksagungen in 1.095 Beiträgen erhalten
Standard

Wien ist heute APP und TWR CPT
Ich bin dabei
Michael Steffen ist offline   Mit Zitat antworten
Alt 2018-04-11, 16:20   #447 (permalink)
 
Benutzerbild von Steffen Butenschön
 
Registriert seit: 2013-01-03
Ort: bei Berlin
Beiträge: 134
Danke erteilt: 332
299 Danksagungen in 95 Beiträgen erhalten
Standard

MMMMMMMünchen Mittwoch!

In wenigen Stunden geht es los und wir freuen uns auf Euren Besuch in Bayern!
Hier wird es wie folgt aussehen:

METAR EDDM 111250Z 09008KT 040V160 CAVOK 17/06 Q1005 NOSIG

TAF EDDM 111100Z 1112/1218 09010KT CAVOK
TEMPO 1120/1206 08005KT



Wir sind wie immer hoch motiviert und freuen uns über jegliches fliegendes Gerät ( Kann gerne auch kleiner sein, als der Kollege im Anhang ). Und definitiv wird heute keiner am virtuellen Boden/Himmel streiken

Nach aktuellem Buchungsstand bieten sich mannigfaltige Möglichkeiten. Sowohl schöne Strecken innerhalb Deutschlands , als auch der Besuch bei unseren europäischen Kollegen bieten sich an. Die Qual der Wahl

Bis gleich!

Eure München Crew
Angehängte Grafiken
Dateityp: jpg MünchenII.JPG (172,4 KB, 39x aufgerufen)
Steffen Butenschön ist offline   Mit Zitat antworten
Alt 2018-04-25, 14:56   #448 (permalink)
 
Registriert seit: 2003-08-26
Ort: Hamburg
Beiträge: 4.533
Danke erteilt: 1.224
1.785 Danksagungen in 959 Beiträgen erhalten
Standard

Auch heute Abend ist in München wieder eine 1A Besetzung!

EDDM 251134Z 2512/2618 26020G30KT CAVOK TEMPO 2512/2517 30025G40KT BECMG 2518/2521 29007KT PROB30 TEMPO 2601/2605 RA BKN014 TEMPO 2610/2615 27015G25KT

Das Wetter verspricht eine "leichte" Brise Wind - also schaut doch vorbei wenn ihr lust habt!
__________________
Beste Grüße
Samy
Samy Greve ist offline   Mit Zitat antworten
Alt 2018-05-09, 15:29   #449 (permalink)
 
Benutzerbild von Steffen Butenschön
 
Registriert seit: 2013-01-03
Ort: bei Berlin
Beiträge: 134
Danke erteilt: 332
299 Danksagungen in 95 Beiträgen erhalten
Standard

Heute wieder zusteigen und dabei sein!
Es geht rund in München. Gerade startet der Europatag auf dem Marienplatz, die Truderinger Festwoche öffnet um 1600 lcl und im Deutschen Museum wird ab 1900 lcl folgender
Frage auf den Grund gegangen : Warum landen Asteroiden immer in Kratern?

Warum heute zahlreiche Flieger in München starten und landen das wissen wir schon:
Der München Mittwoch startet in wenigen Stunden!
Ab 1930 lcl freut sich die gut gelaunte und professionelle Crew am Münchener Flughafen auf Euch.
Der Blick nach draußen ( aktuell und perspektivisch ):

2018/05/09 11:50
EDDM 091150Z 08009KT 030V120 CAVOK 21/07 Q1007 NOSIG

2018/05/09 12:27
TAF EDDM 091100Z 0912/1018 09009KT CAVOK PROB30
TEMPO 0914/0918 11015G25KT -TSRA SCT060CB
BECMG 0917/0919 VRB03KT
BECMG 1005/1007 24005KT
BECMG 1008/1010 26010KT PROB30
TEMPO 1015/1018 27015G25KT TSRA BKN014 BKN030CB

IFR und VFR ist wie immer gleichermaßen gern gesehen. Unsere fliegenden Friesen sind bereits gebucht und stellen sich das Wetter ggf. auf "schön" zum Fliegen mit englischem Funk.
Reiht Euch ein und schaut wie viel Platz Heinz für Platzrunden schaffen kann

Bis gleich!

Eure München Crew
Steffen Butenschön ist offline   Mit Zitat antworten
Alt 2018-05-16, 18:05   #450 (permalink)
 
Benutzerbild von Steffen Butenschön
 
Registriert seit: 2013-01-03
Ort: bei Berlin
Beiträge: 134
Danke erteilt: 332
299 Danksagungen in 95 Beiträgen erhalten
Standard

MMMMMMMMMMünchen Mittwoch!

Da es draußen ja wieder etwas kühler geworden ist und der Biergarten kurzfristig an Reiz verloren hat sitzen wir doch alle gerne am PC ! Also ab in die Flieger für Flüge von und nach München.

Apropos Wetter:

161450Z 26009KT 9999 VCSH SCT015TCU BKN020 13/10 Q1013 TEMPO 34015G25KT -TSRA BKN040CB

METAR Report für: München, Deutschland (Franz Josef Strauss) - EDDM/MUC
Beobachtungszeit: 16.xx.xxxx 14:50 Uhr UTC

Wind ...........: aus 260° mit 9 kt
Sicht ..........: 10 km oder mehr
Wolken .........: 3/8 - 4/8 in 1500 ft über Flugplatzniveau
hochaufgetürmter Cumulus vertikal > 10000 ft
5/8 - 7/8 in 2000 ft über Flugplatzniveau
Temperatur .....: 13°C
Taupunkt .......: 10°C
QNH ............: 1013 hPa

vorübergehende zeitweilige Änderung von Wetterelementen:
Wind ...........: aus 340° mit 15 kt, in Böen bis maximal 25 kt
Wetter .........: leicht Gewitter Regen
Wolken .........: 5/8 - 7/8 in 4000 ft über Flugplatzniveau
Cumulonimbus

2018/05/16 12:27
TAF EDDM 161100Z 1612/1718 26010KT 9999 SCT020 BKN045 PROB40
TEMPO 1612/1620 32015G25KT TSRA BKN020CB
BECMG 1617/1619 27005KT
TEMPO 1700/1708 BKN010
BECMG 1706/1708 29010KT
TEMPO 1710/1718 32015G25KT SHRA SCT012 SCT030CB PROB30
TEMPO 1713/1718 TSRA

Das könnte doch ganz spannend werden

Wir freuen uns auf Euch!

Die entspannte München Crew
Steffen Butenschön ist offline   Mit Zitat antworten
Antwort

  VATSIM Germany Forum > Community > Events


Themen-Optionen
Ansicht

Forumregeln
Es ist dir nicht erlaubt, neue Themen zu verfassen.
Es ist dir nicht erlaubt, auf Beiträge zu antworten.
Es ist dir nicht erlaubt, Anhänge hochzuladen.
Es ist dir nicht erlaubt, deine Beiträge zu bearbeiten.

BB-Code ist an.
Smileys sind an.
[IMG] Code ist an.
HTML-Code ist aus.
Trackbacks are an
Pingbacks are an
Refbacks are an



Alle Zeitangaben in WEZ +2. Es ist jetzt 02:35 Uhr.


Powered by vBulletin® Version 3.8.4 (Deutsch)
Copyright ©2000 - 2018, Jelsoft Enterprises Ltd.
Template-Modifikationen durch TMS
© 2006 - 2018 vatsim-germany.org